Eldorado, Oklahoma
Current Conditions -  °F | °C
As of 12:55 AM on Friday 28 Nov 2014 (Local Time) from KAXS Reporting Station
Clear Clear  
Wind Chill: 33°   Ceiling: Unl
Heat Index: 38°   Visibility: 10mi
Dew Point: 31°   Wind: 7mph
Humidity: 75%   Direction: 120°ESE
Pressure: 30.25"   Gusts: NA
Location:  34.47°N, 99.65°W
Report Text: KAXS 280655Z AUTO 12006KT 10SM CLR 04/00 A3025 RMK AO2 T00361005
Loading
Personal Weather Stations






























Interactive Weather Map New forecast layout! Learn more

10-Day Weather Forecast

Advertisements
Track Severe Weather on mobile